Time;durP1;ratioP1;P1;durP2;ratioP2;P2;SDS_P1;SDS_P2;PMS_P1;PMS_P2;Temp;Humidity;BMP_temperature;BMP_pressure;BME280_temperature;BME280_humidity;BME280_pressure;Samples;Min_cycle;Max_cycle;Signal;HPM_P1;HPM_P2
2023/02/11 00:00:51;;;;;;;56.63;31.23;;;1.90;99.90;;;;;;2083111;28;20032;-72
2023/02/11 00:01:51;;;;;;;60.60;32.50;;;2.00;99.90;;;;;;2091924;28;20039;-72
2023/02/11 00:02:52;;;;;;;56.72;30.75;;;2.00;99.90;;;;;;2091618;28;20111;-75
2023/02/11 00:03:53;;;;;;;58.30;31.30;;;2.00;99.90;;;;;;2094130;28;20028;-73
2023/02/11 00:04:53;;;;;;;60.25;31.75;;;2.10;99.90;;;;;;2089457;28;20029;-73
2023/02/11 00:06:03;;;;;;;58.92;31.65;;;2.10;99.90;;;;;;2091952;28;20028;-73
2023/02/11 00:07:04;;;;;;;55.47;29.60;;;2.10;99.90;;;;;;2090983;28;20088;-73
2023/02/11 00:08:04;;;;;;;53.72;30.30;;;2.10;99.90;;;;;;2091432;28;20281;-74
2023/02/11 00:09:05;;;;;;;57.78;31.70;;;2.10;99.90;;;;;;2094076;28;20025;-73
2023/02/11 00:10:07;;;;;;;55.85;31.58;;;2.10;99.90;;;;;;2092274;28;20558;-74
2023/02/11 00:11:13;;;;;;;54.92;30.02;;;2.20;99.90;;;;;;2091559;28;20499;-74
2023/02/11 00:12:14;;;;;;;52.88;29.23;;;2.10;99.90;;;;;;2087632;28;20144;-74
2023/02/11 00:13:15;;;;;;;56.08;30.60;;;2.20;99.90;;;;;;2091198;28;20032;-73
2023/02/11 00:14:15;;;;;;;58.95;31.55;;;2.20;99.90;;;;;;2092907;28;20492;-73
2023/02/11 00:15:16;;;;;;;56.67;32.10;;;2.20;99.90;;;;;;2091818;28;20033;-73
2023/02/11 00:16:19;;;;;;;55.50;30.83;;;2.20;99.90;;;;;;2092003;28;22575;-73
2023/02/11 00:17:20;;;;;;;57.28;31.45;;;2.30;99.90;;;;;;2089871;28;20390;-73
2023/02/11 00:18:21;;;;;;;54.90;30.58;;;2.30;99.90;;;;;;2090872;28;20117;-72
2023/02/11 00:19:21;;;;;;;57.65;31.77;;;2.30;99.90;;;;;;2093766;28;20028;-73
2023/02/11 00:20:22;;;;;;;57.00;30.92;;;2.30;99.90;;;;;;2091823;28;20108;-71
2023/02/11 00:21:25;;;;;;;62.25;32.35;;;2.30;99.90;;;;;;2090696;28;20439;-72
2023/02/11 00:22:25;;;;;;;54.88;31.73;;;2.30;99.90;;;;;;2090342;28;20368;-72
2023/02/11 00:23:26;;;;;;;56.45;30.85;;;2.30;99.90;;;;;;2090624;28;20066;-72
2023/02/11 00:24:28;;;;;;;58.03;30.98;;;2.30;99.90;;;;;;2084314;28;20123;-72
2023/02/11 00:25:29;;;;;;;56.33;30.85;;;2.30;99.90;;;;;;2080397;28;20435;-72
2023/02/11 00:26:32;;;;;;;52.42;29.10;;;2.30;99.90;;;;;;2092902;28;20048;-72
2023/02/11 00:27:33;;;;;;;50.60;28.77;;;2.30;99.90;;;;;;2088582;28;20056;-73
2023/02/11 00:28:33;;;;;;;53.75;30.80;;;2.30;99.90;;;;;;2091802;28;20032;-72
2023/02/11 00:29:35;;;;;;;57.05;31.50;;;2.30;99.90;;;;;;2092299;28;20108;-72
2023/02/11 00:30:37;;;;;;;57.58;29.95;;;2.30;99.90;;;;;;2082787;28;20025;-73
2023/02/11 00:31:38;;;;;;;57.33;31.67;;;2.30;99.90;;;;;;2082516;28;20557;-73
2023/02/11 00:32:41;;;;;;;51.88;29.98;;;2.40;99.90;;;;;;2077102;28;20028;-73
2023/02/11 00:33:42;;;;;;;54.85;30.23;;;2.40;99.90;;;;;;2070093;28;20446;-73
2023/02/11 00:34:43;;;;;;;54.00;30.35;;;2.40;99.90;;;;;;2080895;28;20646;-72
2023/02/11 00:35:43;;;;;;;54.75;30.63;;;2.40;99.90;;;;;;2083565;28;20059;-72
2023/02/11 00:36:44;;;;;;;54.92;29.88;;;2.40;99.90;;;;;;2082269;28;20562;-72
2023/02/11 00:37:44;;;;;;;51.28;29.08;;;2.40;99.90;;;;;;2090856;28;20050;-72
2023/02/11 00:38:46;;;;;;;49.85;28.00;;;2.30;99.90;;;;;;2074300;28;20029;-72
2023/02/11 00:39:47;;;;;;;54.30;29.75;;;2.30;99.90;;;;;;2075106;28;20038;-72
2023/02/11 00:40:47;;;;;;;53.85;30.23;;;2.30;99.90;;;;;;2074621;28;20057;-73
2023/02/11 00:41:48;;;;;;;54.90;29.77;;;2.30;99.90;;;;;;2074803;28;20041;-74
2023/02/11 00:42:48;;;;;;;55.92;31.05;;;2.30;99.90;;;;;;2082973;28;20083;-73
2023/02/11 00:43:50;;;;;;;53.42;30.75;;;2.30;99.90;;;;;;2084491;28;20017;-72
2023/02/11 00:44:52;;;;;;;54.88;30.17;;;2.30;99.90;;;;;;2081528;28;20424;-72
2023/02/11 00:45:53;;;;;;;55.63;31.30;;;2.40;99.90;;;;;;2071546;28;20029;-73
2023/02/11 00:46:53;;;;;;;56.38;31.25;;;2.50;99.90;;;;;;2080276;28;20021;-72
2023/02/11 00:47:54;;;;;;;54.00;30.27;;;2.50;99.90;;;;;;2074304;28;20047;-72
2023/02/11 00:48:56;;;;;;;53.47;31.45;;;2.60;99.90;;;;;;2075511;28;20029;-73
2023/02/11 00:49:57;;;;;;;54.72;30.67;;;2.60;99.90;;;;;;2089627;28;20303;-72
2023/02/11 00:50:57;;;;;;;52.33;29.92;;;2.60;99.90;;;;;;2082709;28;20029;-73
2023/02/11 00:51:59;;;;;;;53.50;30.90;;;2.70;99.90;;;;;;2081309;28;20040;-72
2023/02/11 00:52:59;;;;;;;53.72;30.60;;;2.70;99.90;;;;;;2083427;28;20063;-72
2023/02/11 00:54:00;;;;;;;53.55;30.02;;;2.70;99.90;;;;;;2101708;28;20038;-71
2023/02/11 00:55:00;;;;;;;54.13;30.77;;;2.70;99.90;;;;;;2091855;28;20028;-73
2023/02/11 00:56:01;;;;;;;54.30;30.45;;;2.70;99.90;;;;;;2085273;28;20123;-74
2023/02/11 00:57:02;;;;;;;54.88;31.27;;;2.80;99.90;;;;;;2089182;28;20020;-73
2023/02/11 00:58:02;;;;;;;55.85;31.10;;;2.80;99.90;;;;;;2089452;28;20029;-73
2023/02/11 00:59:03;;;;;;;54.20;30.27;;;2.80;99.90;;;;;;2090815;28;20491;-73
2023/02/11 01:00:06;;;;;;;55.45;30.63;;;2.90;99.90;;;;;;2090054;28;20084;-73
2023/02/11 01:01:06;;;;;;;54.13;30.70;;;2.90;99.90;;;;;;2097272;28;20561;-75
2023/02/11 01:02:07;;;;;;;57.92;31.00;;;2.90;99.90;;;;;;2083744;28;20037;-73
2023/02/11 01:03:07;;;;;;;53.28;29.98;;;2.90;99.90;;;;;;2085340;28;20083;-73
2023/02/11 01:04:08;;;;;;;51.67;30.20;;;2.90;99.90;;;;;;2089897;28;20256;-73
2023/02/11 01:05:08;;;;;;;51.03;29.95;;;2.90;99.90;;;;;;2078054;28;20033;-73
2023/02/11 01:06:09;;;;;;;59.25;30.98;;;2.90;99.90;;;;;;2073720;28;20038;-73
2023/02/11 01:07:11;;;;;;;52.53;29.90;;;2.90;99.90;;;;;;2083019;28;20071;-74
2023/02/11 01:08:12;;;;;;;55.92;30.90;;;2.90;99.90;;;;;;2081489;28;20090;-72
2023/02/11 01:09:12;;;;;;;52.20;30.08;;;3.00;99.90;;;;;;2089080;28;20029;-73
2023/02/11 01:10:13;;;;;;;53.60;31.23;;;2.90;99.90;;;;;;2087511;28;20032;-73
2023/02/11 01:11:17;;;;;;;50.30;29.35;;;2.90;99.90;;;;;;2091134;28;20028;-73
2023/02/11 01:12:19;;;;;;;56.72;31.55;;;2.90;99.90;;;;;;2091616;28;20040;-74
2023/02/11 01:13:19;;;;;;;54.15;31.10;;;2.90;99.90;;;;;;2097352;28;20036;-74
2023/02/11 01:14:20;;;;;;;53.85;30.23;;;2.80;99.90;;;;;;2097389;28;20032;-74
2023/02/11 01:15:22;;;;;;;56.15;30.55;;;2.80;99.90;;;;;;2090991;28;20198;-73
2023/02/11 01:16:23;;;;;;;53.75;31.40;;;2.80;99.90;;;;;;2082946;28;20041;-73
2023/02/11 01:17:26;;;;;;;55.63;31.60;;;2.80;99.90;;;;;;2078146;28;20104;-73
2023/02/11 01:18:26;;;;;;;54.35;32.03;;;2.90;99.90;;;;;;2083930;28;20222;-73
2023/02/11 01:19:27;;;;;;;53.05;29.98;;;2.80;99.90;;;;;;2088231;28;20130;-73
2023/02/11 01:20:28;;;;;;;56.08;32.15;;;2.80;99.90;;;;;;2096708;28;20032;-72
2023/02/11 01:21:30;;;;;;;53.55;30.63;;;2.80;99.90;;;;;;2087818;28;20479;-72
2023/02/11 01:22:33;;;;;;;53.53;29.80;;;2.80;99.90;;;;;;2084969;28;20035;-71
2023/02/11 01:23:33;;;;;;;55.53;31.65;;;2.80;99.90;;;;;;2073556;28;20044;-73
2023/02/11 01:24:34;;;;;;;54.45;30.83;;;2.80;99.90;;;;;;2087742;28;20232;-72
2023/02/11 01:25:34;;;;;;;54.55;31.52;;;2.80;99.90;;;;;;2086480;28;20419;-71
2023/02/11 01:26:37;;;;;;;56.30;31.80;;;2.80;99.90;;;;;;2070136;28;20026;-72
2023/02/11 01:27:38;;;;;;;55.83;31.38;;;2.80;99.90;;;;;;2068479;28;20117;-72
2023/02/11 01:28:38;;;;;;;53.63;31.27;;;2.80;99.90;;;;;;2077651;28;20036;-73
2023/02/11 01:29:39;;;;;;;52.85;31.48;;;2.80;99.90;;;;;;2089751;28;20617;-74
2023/02/11 01:30:39;;;;;;;57.25;32.30;;;2.80;99.90;;;;;;2094561;28;20040;-72
2023/02/11 01:31:40;;;;;;;55.67;32.28;;;2.80;99.90;;;;;;2101837;28;20052;-72
2023/02/11 01:32:40;;;;;;;58.45;32.13;;;2.80;99.90;;;;;;2085797;28;20090;-73
2023/02/11 01:33:42;;;;;;;53.83;31.58;;;2.80;99.90;;;;;;2082940;28;20214;-72
2023/02/11 01:34:43;;;;;;;55.03;32.33;;;2.90;99.90;;;;;;2086912;28;20017;-72
2023/02/11 01:35:44;;;;;;;55.47;31.98;;;2.90;99.90;;;;;;2095559;28;20684;-72
2023/02/11 01:36:45;;;;;;;54.40;31.77;;;2.90;99.90;;;;;;2101653;28;20129;-73
2023/02/11 01:37:45;;;;;;;54.63;32.60;;;2.90;99.90;;;;;;2096674;28;20266;-72
2023/02/11 01:38:46;;;;;;;49.75;29.58;;;2.90;99.90;;;;;;2099734;28;20035;-72
2023/02/11 01:39:46;;;;;;;54.60;32.08;;;2.90;99.90;;;;;;2091074;28;20078;-72
2023/02/11 01:40:53;;;;;;;53.67;30.52;;;2.90;99.90;;;;;;2090937;28;20032;-72
2023/02/11 01:41:54;;;;;;;55.55;32.03;;;2.90;99.90;;;;;;2099664;28;20031;-73
2023/02/11 01:42:54;;;;;;;56.55;32.03;;;2.90;99.90;;;;;;2093502;28;20032;-72
2023/02/11 01:43:55;;;;;;;52.85;31.67;;;2.90;99.90;;;;;;2081646;28;20609;-72
2023/02/11 01:44:56;;;;;;;51.72;30.90;;;3.00;99.90;;;;;;2072367;28;20030;-72
2023/02/11 01:46:26;;;;;;;54.20;30.45;;;3.00;99.90;;;;;;2082575;28;20035;-72
2023/02/11 01:47:26;;;;;;;56.60;32.13;;;2.90;99.90;;;;;;2077511;28;20470;-71
2023/02/11 01:48:34;;;;;;;53.45;31.65;;;2.90;99.90;;;;;;2079011;28;20064;-71
2023/02/11 01:49:41;;;;;;;55.13;31.67;;;3.00;99.90;;;;;;2081240;28;20035;-72
2023/02/11 01:50:44;;;;;;;54.67;31.52;;;3.00;99.90;;;;;;2087024;28;20066;-71
2023/02/11 01:52:08;;;;;;;53.90;31.63;;;3.00;99.90;;;;;;2101813;28;20024;-72
2023/02/11 01:57:23;;;;;;;53.55;30.15;;;3.10;99.90;;;;;;2093536;28;20111;-73
2023/02/11 01:58:26;;;;;;;52.67;30.17;;;3.10;99.90;;;;;;2097449;28;20028;-72
2023/02/11 01:59:32;;;;;;;52.38;31.05;;;3.10;99.90;;;;;;2086029;28;20038;-73
2023/02/11 02:00:35;;;;;;;52.08;30.05;;;3.10;99.90;;;;;;2089611;28;20531;-73
2023/02/11 02:01:38;;;;;;;53.25;31.13;;;3.20;99.90;;;;;;2090709;28;20107;-73
2023/02/11 02:02:45;;;;;;;47.45;28.75;;;3.20;99.90;;;;;;2095391;28;20020;-73
2023/02/11 02:03:51;;;;;;;47.42;28.48;;;3.20;99.90;;;;;;2081569;28;20025;-73
2023/02/11 02:04:58;;;;;;;49.40;29.50;;;3.20;99.90;;;;;;2081805;28;20028;-72
2023/02/11 02:06:09;;;;;;;50.25;30.25;;;3.20;99.90;;;;;;2088922;28;20021;-72
2023/02/11 02:07:16;;;;;;;47.22;28.40;;;3.20;99.90;;;;;;2085826;28;20060;-72
2023/02/11 02:08:20;;;;;;;48.42;29.25;;;3.20;99.90;;;;;;2093352;28;20028;-73
2023/02/11 02:09:24;;;;;;;55.45;31.98;;;3.20;99.90;;;;;;2087457;28;20027;-72
2023/02/11 02:10:26;;;;;;;48.42;29.85;;;3.20;99.90;;;;;;2083155;28;20072;-70
2023/02/11 02:11:27;;;;;;;52.17;31.65;;;3.20;99.90;;;;;;2084744;28;20043;-71
2023/02/11 02:12:27;;;;;;;51.13;30.95;;;3.30;99.90;;;;;;2090534;28;20047;-70
2023/02/11 02:13:30;;;;;;;51.58;30.90;;;3.30;99.90;;;;;;2088358;28;20064;-73
2023/02/11 02:14:30;;;;;;;53.10;30.92;;;3.40;99.90;;;;;;2077864;28;20029;-72
2023/02/11 02:15:33;;;;;;;50.58;29.42;;;3.30;99.90;;;;;;2090713;28;20031;-73
2023/02/11 02:16:37;;;;;;;52.95;31.38;;;3.40;99.90;;;;;;2093602;28;20028;-71
2023/02/11 02:17:45;;;;;;;52.80;31.60;;;3.40;99.90;;;;;;2086726;28;20045;-72
2023/02/11 02:18:54;;;;;;;53.35;32.05;;;3.40;99.90;;;;;;2091291;28;20437;-72
2023/02/11 02:20:46;;;;;;;54.83;32.45;;;3.40;99.90;;;;;;2095263;28;20528;-72
2023/02/11 02:22:15;;;;;;;55.40;31.50;;;3.50;99.90;;;;;;2087874;28;20482;-72
2023/02/11 02:23:44;;;;;;;51.55;30.70;;;3.50;99.90;;;;;;2092223;28;20111;-72
2023/02/11 02:25:06;;;;;;;54.33;31.25;;;3.60;99.90;;;;;;2064734;28;20045;-72
2023/02/11 02:26:21;;;;;;;54.97;32.08;;;3.60;99.90;;;;;;2099815;28;20036;-72
2023/02/11 02:27:45;;;;;;;54.97;32.53;;;3.60;99.90;;;;;;2088616;28;20541;-72
2023/02/11 02:29:03;;;;;;;52.88;30.77;;;3.60;99.90;;;;;;2092601;28;20056;-72
2023/02/11 02:30:24;;;;;;;53.92;31.05;;;3.60;99.90;;;;;;2090458;28;20032;-72
2023/02/11 02:31:53;;;;;;;50.47;28.95;;;3.60;99.90;;;;;;2095402;28;20056;-72
2023/02/11 02:32:57;;;;;;;54.25;32.10;;;3.60;99.90;;;;;;2086158;28;20033;-72
2023/02/11 02:34:29;;;;;;;51.67;30.58;;;3.70;99.90;;;;;;2088594;28;20036;-72
2023/02/11 02:35:54;;;;;;;52.38;30.55;;;3.70;99.90;;;;;;2089250;28;20779;-72
2023/02/11 02:37:07;;;;;;;50.65;30.13;;;3.70;99.90;;;;;;2087351;28;20030;-72
2023/02/11 02:38:34;;;;;;;52.70;31.42;;;3.70;99.90;;;;;;2093749;28;20470;-72
2023/02/11 02:39:36;;;;;;;51.97;30.90;;;3.70;99.90;;;;;;2095958;28;20032;-72
2023/02/11 02:41:02;;;;;;;53.15;30.50;;;3.70;99.90;;;;;;2093219;28;20056;-72
2023/02/11 02:42:04;;;;;;;49.65;28.50;;;3.70;99.90;;;;;;2089595;28;20582;-72
2023/02/11 02:43:08;;;;;;;46.83;28.38;;;3.70;99.90;;;;;;2082433;28;20267;-72
2023/02/11 02:44:08;;;;;;;47.30;28.85;;;3.70;99.90;;;;;;2084014;28;20060;-72
2023/02/11 02:45:10;;;;;;;44.80;27.90;;;3.70;99.90;;;;;;2092377;28;20110;-72
2023/02/11 02:46:26;;;;;;;46.40;28.08;;;3.70;99.90;;;;;;2092296;28;20060;-71
2023/02/11 02:47:26;;;;;;;53.70;33.05;;;3.70;99.90;;;;;;2094760;28;20028;-71
2023/02/11 02:48:32;;;;;;;53.72;31.65;;;3.70;99.90;;;;;;2099792;28;20114;-71
2023/02/11 02:49:33;;;;;;;54.20;31.98;;;3.70;99.90;;;;;;2105156;28;20036;-71
2023/02/11 02:50:36;;;;;;;49.58;30.17;;;3.70;99.90;;;;;;2082719;28;20377;-71
2023/02/11 02:52:00;;;;;;;52.50;30.92;;;3.70;99.90;;;;;;2087634;28;20332;-72
2023/02/11 02:53:11;;;;;;;48.70;29.45;;;3.70;99.90;;;;;;2086437;28;20112;-72
2023/02/11 02:54:21;;;;;;;46.85;28.65;;;3.80;99.90;;;;;;2085831;28;20120;-72
2023/02/11 02:55:59;;;;;;;51.00;30.95;;;3.80;99.90;;;;;;2097842;28;20083;-74
2023/02/11 02:57:24;;;;;;;51.28;30.80;;;3.80;99.90;;;;;;2097859;28;20055;-72
2023/02/11 02:58:48;;;;;;;56.13;32.25;;;3.80;99.90;;;;;;2096130;28;20035;-72
2023/02/11 02:59:48;;;;;;;53.88;30.85;;;3.80;99.90;;;;;;2078634;28;20034;-72
2023/02/11 03:01:03;;;;;;;53.38;30.75;;;3.90;99.90;;;;;;2080689;28;20029;-72
2023/02/11 03:02:29;;;;;;;53.97;30.25;;;3.90;99.90;;;;;;2093789;28;20867;-73
2023/02/11 03:04:08;;;;;;;51.95;29.90;;;4.00;99.90;;;;;;2090890;28;20414;-72
2023/02/11 03:05:46;;;;;;;53.83;30.42;;;4.00;99.90;;;;;;2050541;28;20077;-72
2023/02/11 03:07:00;;;;;;;53.15;30.83;;;4.00;99.90;;;;;;2066373;28;20036;-72
2023/02/11 03:08:08;;;;;;;52.10;30.75;;;4.00;99.90;;;;;;2084109;28;20071;-72
2023/02/11 03:09:17;;;;;;;51.22;31.05;;;4.00;99.90;;;;;;2089175;28;20036;-73
2023/02/11 03:10:29;;;;;;;49.33;29.13;;;4.00;99.90;;;;;;2088092;28;20294;-73
2023/02/11 03:11:30;;;;;;;54.22;31.85;;;4.10;99.90;;;;;;2088534;28;20036;-71
2023/02/11 03:12:33;;;;;;;49.53;30.33;;;4.10;99.90;;;;;;2091648;28;20086;-72
2023/02/11 03:13:36;;;;;;;51.60;30.50;;;4.10;99.90;;;;;;2097911;28;20035;-72
2023/02/11 03:14:38;;;;;;;52.65;30.85;;;4.10;99.90;;;;;;2095008;28;20044;-72
2023/02/11 03:15:44;;;;;;;50.40;29.80;;;4.10;99.90;;;;;;2089635;28;20039;-72
2023/02/11 03:16:46;;;;;;;49.53;29.15;;;4.10;99.90;;;;;;2091223;28;20037;-72
2023/02/11 03:17:50;;;;;;;49.25;29.92;;;4.10;99.90;;;;;;2098206;28;20031;-72
2023/02/11 03:19:04;;;;;;;49.80;29.38;;;4.10;99.90;;;;;;2094884;28;20542;-72
2023/02/11 03:20:09;;;;;;;46.20;28.35;;;4.10;99.90;;;;;;2097156;28;20060;-73
2023/02/11 03:21:10;;;;;;;53.95;31.60;;;4.10;99.90;;;;;;2083116;28;20024;-72
2023/02/11 03:22:19;;;;;;;50.47;30.40;;;4.10;99.90;;;;;;2082463;28;20245;-73
2023/02/11 03:23:36;;;;;;;50.85;30.38;;;4.10;99.90;;;;;;2080345;28;20443;-71
2023/02/11 03:24:38;;;;;;;52.00;30.60;;;4.20;99.90;;;;;;2067110;28;20575;-71
2023/02/11 03:25:49;;;;;;;51.10;30.88;;;4.20;99.90;;;;;;2076600;28;20431;-71
2023/02/11 03:26:53;;;;;;;51.38;30.10;;;4.20;99.90;;;;;;2081557;28;20025;-71
2023/02/11 03:28:27;;;;;;;51.78;30.77;;;4.10;99.90;;;;;;2092403;28;20025;-71
2023/02/11 03:29:50;;;;;;;51.72;30.33;;;4.10;99.90;;;;;;2091304;28;20384;-72
2023/02/11 03:31:27;;;;;;;55.20;32.15;;;4.10;99.90;;;;;;2097104;28;20035;-71
2023/02/11 03:32:35;;;;;;;53.17;31.40;;;4.10;99.90;;;;;;2096061;28;20028;-72
2023/02/11 03:34:05;;;;;;;53.65;31.13;;;4.10;99.90;;;;;;2095525;28;20047;-72
2023/02/11 03:35:49;;;;;;;54.17;31.48;;;4.00;99.90;;;;;;2087094;28;20048;-72
2023/02/11 03:37:04;;;;;;;51.47;30.45;;;4.00;99.90;;;;;;2086620;28;20093;-72
2023/02/11 03:38:10;;;;;;;54.85;30.98;;;3.90;99.90;;;;;;2096752;28;20067;-72
2023/02/11 03:39:21;;;;;;;54.83;32.42;;;3.90;99.90;;;;;;2100740;28;20372;-73
2023/02/11 03:40:25;;;;;;;54.20;31.15;;;3.90;99.90;;;;;;2095749;28;20031;-73
2023/02/11 03:41:27;;;;;;;52.78;32.05;;;3.90;99.90;;;;;;2099134;28;20063;-73
2023/02/11 03:42:33;;;;;;;52.75;32.13;;;3.90;99.90;;;;;;2100692;28;20028;-72
2023/02/11 03:43:38;;;;;;;56.05;32.88;;;3.90;99.90;;;;;;2095117;28;20028;-73
2023/02/11 03:45:03;;;;;;;53.35;30.90;;;3.90;99.90;;;;;;2094988;28;20114;-73
2023/02/11 03:46:05;;;;;;;54.85;31.50;;;3.90;99.90;;;;;;2095201;28;20115;-73
2023/02/11 03:47:09;;;;;;;56.47;32.33;;;4.00;99.90;;;;;;2096989;28;20039;-73
2023/02/11 03:48:25;;;;;;;55.55;32.65;;;4.00;99.90;;;;;;2095741;28;20085;-73
2023/02/11 03:49:27;;;;;;;54.55;32.63;;;4.00;99.90;;;;;;2095804;28;20036;-72
2023/02/11 03:50:31;;;;;;;55.78;31.83;;;4.00;99.90;;;;;;2086679;28;20111;-72
2023/02/11 03:51:32;;;;;;;56.70;33.70;;;4.10;99.90;;;;;;2080284;28;20021;-72
2023/02/11 03:52:35;;;;;;;54.65;32.05;;;4.00;99.90;;;;;;2087563;28;20048;-72
2023/02/11 03:53:39;;;;;;;53.03;31.88;;;4.10;99.90;;;;;;2087462;28;20049;-73
2023/02/11 03:54:42;;;;;;;53.53;32.33;;;4.00;99.90;;;;;;2085953;28;20121;-72
2023/02/11 03:55:45;;;;;;;54.58;33.13;;;4.10;99.90;;;;;;2086876;28;20040;-75
2023/02/11 03:56:54;;;;;;;53.67;32.47;;;4.10;99.90;;;;;;2086059;28;20136;-74
2023/02/11 03:57:55;;;;;;;56.53;33.15;;;4.10;99.90;;;;;;2085777;28;20028;-72
2023/02/11 03:58:55;;;;;;;55.97;32.60;;;4.10;99.90;;;;;;2088901;28;20107;-74
2023/02/11 03:59:58;;;;;;;58.78;33.60;;;4.10;99.90;;;;;;2081335;28;20111;-74
2023/02/11 04:01:01;;;;;;;56.72;33.10;;;4.10;99.90;;;;;;2081803;28;20052;-74
2023/02/11 04:02:01;;;;;;;53.28;32.15;;;4.10;99.90;;;;;;2081957;28;20265;-75
2023/02/11 04:03:03;;;;;;;54.10;32.67;;;4.10;99.90;;;;;;2073496;28;20639;-74
2023/02/11 04:04:04;;;;;;;53.42;32.72;;;4.10;99.90;;;;;;2077556;28;20571;-73
2023/02/11 04:05:06;;;;;;;54.38;33.08;;;4.10;99.90;;;;;;2075441;28;20029;-75
2023/02/11 04:06:07;;;;;;;55.60;32.17;;;4.10;99.90;;;;;;2074973;28;20711;-75
2023/02/11 04:07:10;;;;;;;57.13;33.30;;;4.10;99.90;;;;;;2082021;28;20036;-74
2023/02/11 04:08:10;;;;;;;55.35;32.90;;;4.10;99.90;;;;;;2088374;28;20028;-73
2023/02/11 04:09:11;;;;;;;55.95;32.75;;;4.10;99.90;;;;;;2088913;28;20136;-75
2023/02/11 04:10:12;;;;;;;56.35;32.65;;;4.10;99.90;;;;;;2090413;28;20514;-74
2023/02/11 04:11:12;;;;;;;54.85;33.30;;;4.10;99.90;;;;;;2086071;28;20033;-79
2023/02/11 04:12:13;;;;;;;56.40;33.15;;;4.10;99.90;;;;;;2082285;28;20119;-75
2023/02/11 04:13:14;;;;;;;54.22;31.50;;;4.20;99.90;;;;;;2081369;28;20029;-81
2023/02/11 04:14:14;;;;;;;55.08;32.28;;;4.20;99.90;;;;;;2092146;28;20021;-73
2023/02/11 04:15:15;;;;;;;53.35;31.75;;;4.20;99.90;;;;;;2090959;28;20533;-72
2023/02/11 04:16:15;;;;;;;57.20;33.70;;;4.20;99.90;;;;;;2091440;28;20119;-73
2023/02/11 04:17:16;;;;;;;56.70;33.05;;;4.20;99.90;;;;;;2085747;28;20032;-72
2023/02/11 04:18:17;;;;;;;53.63;32.45;;;4.20;99.90;;;;;;2089667;28;20021;-73
2023/02/11 04:19:17;;;;;;;57.47;32.83;;;4.20;99.90;;;;;;2086596;28;20182;-71
2023/02/11 04:20:18;;;;;;;55.88;34.35;;;4.20;99.90;;;;;;2089791;28;20033;-71
2023/02/11 04:21:19;;;;;;;57.50;33.42;;;4.20;99.90;;;;;;2086760;28;20045;-72
2023/02/11 04:22:19;;;;;;;55.38;32.88;;;4.20;99.90;;;;;;2079553;28;20395;-72
2023/02/11 04:23:20;;;;;;;56.58;32.70;;;4.20;99.90;;;;;;2084929;28;20057;-72
2023/02/11 04:24:20;;;;;;;56.85;33.22;;;4.20;99.90;;;;;;2090287;28;20039;-72
2023/02/11 04:25:21;;;;;;;55.60;32.85;;;4.20;99.90;;;;;;2081328;28;20033;-72
2023/02/11 04:26:21;;;;;;;55.58;33.33;;;4.20;99.90;;;;;;2079403;28;20112;-72
2023/02/11 04:27:22;;;;;;;55.33;33.15;;;4.20;99.90;;;;;;2078934;28;20029;-72
2023/02/11 04:28:23;;;;;;;56.58;33.58;;;4.20;99.90;;;;;;2070210;28;20042;-72
2023/02/11 04:29:23;;;;;;;54.83;32.92;;;4.20;99.90;;;;;;2081892;28;20021;-72
2023/02/11 04:30:24;;;;;;;56.42;33.53;;;4.20;99.90;;;;;;2089089;28;20028;-73
2023/02/11 04:31:24;;;;;;;54.58;32.95;;;4.20;99.90;;;;;;2082949;28;20346;-73
2023/02/11 04:32:25;;;;;;;55.83;32.95;;;4.20;99.90;;;;;;2076636;28;20038;-71
2023/02/11 04:33:26;;;;;;;53.90;32.05;;;4.20;99.90;;;;;;2083131;28;20032;-72
2023/02/11 04:34:26;;;;;;;60.67;34.42;;;4.20;99.90;;;;;;2078434;28;20447;-71
2023/02/11 04:35:27;;;;;;;56.42;33.45;;;4.30;99.90;;;;;;2082137;28;20104;-72
2023/02/11 04:36:27;;;;;;;55.83;33.25;;;4.20;99.90;;;;;;2094298;28;20033;-71
2023/02/11 04:37:28;;;;;;;57.20;32.97;;;4.20;99.90;;;;;;2082974;28;20123;-71
2023/02/11 04:38:28;;;;;;;57.15;33.15;;;4.20;99.90;;;;;;2083339;28;20098;-71
2023/02/11 04:39:29;;;;;;;57.13;33.80;;;4.30;99.90;;;;;;2090657;28;20549;-72
2023/02/11 04:40:29;;;;;;;52.17;31.65;;;4.30;99.90;;;;;;2088642;28;20081;-72
2023/02/11 04:41:30;;;;;;;53.15;31.75;;;4.30;99.90;;;;;;2080516;28;20033;-72
2023/02/11 04:42:30;;;;;;;53.35;32.20;;;4.20;99.90;;;;;;2083244;28;20029;-72
2023/02/11 04:43:31;;;;;;;57.58;32.88;;;4.20;99.90;;;;;;2087109;28;20094;-71
2023/02/11 04:44:32;;;;;;;57.80;33.45;;;4.30;99.90;;;;;;2091841;28;20005;-71
2023/02/11 04:45:32;;;;;;;55.30;32.92;;;4.20;99.90;;;;;;2081876;28;20021;-71
2023/02/11 04:46:33;;;;;;;54.42;32.28;;;4.30;99.90;;;;;;2083118;28;20128;-71
2023/02/11 04:47:33;;;;;;;57.25;33.13;;;4.20;99.90;;;;;;2081802;28;20088;-72
2023/02/11 04:48:34;;;;;;;57.55;33.25;;;4.30;99.90;;;;;;2080848;28;20067;-72
2023/02/11 04:49:35;;;;;;;56.35;33.00;;;4.30;99.90;;;;;;2093373;28;20087;-71
2023/02/11 04:50:35;;;;;;;56.67;33.22;;;4.30;99.90;;;;;;2082912;28;20327;-72
2023/02/11 04:51:36;;;;;;;53.72;32.03;;;4.30;99.90;;;;;;2083074;28;20438;-71
2023/02/11 04:52:36;;;;;;;54.47;32.55;;;4.30;99.90;;;;;;2087149;28;20398;-72
2023/02/11 04:53:37;;;;;;;53.00;32.03;;;4.30;99.90;;;;;;2089279;28;20044;-72
2023/02/11 04:54:38;;;;;;;59.05;32.92;;;4.30;99.90;;;;;;2094529;28;20025;-71
2023/02/11 04:55:38;;;;;;;57.25;32.75;;;4.30;99.90;;;;;;2091253;28;20189;-71
2023/02/11 04:56:39;;;;;;;54.17;31.23;;;4.30;99.90;;;;;;2090790;28;20439;-71
2023/02/11 04:57:39;;;;;;;53.08;31.52;;;4.30;99.90;;;;;;2084893;28;20565;-71
2023/02/11 04:58:40;;;;;;;54.03;31.17;;;4.20;99.90;;;;;;2075426;28;20436;-71
2023/02/11 04:59:41;;;;;;;51.53;31.60;;;4.20;99.90;;;;;;2083062;28;20044;-71
2023/02/11 05:00:45;;;;;;;57.58;33.58;;;4.20;99.90;;;;;;2084586;28;20029;-72
2023/02/11 05:01:45;;;;;;;56.97;32.33;;;4.20;99.90;;;;;;2090132;28;20033;-72
2023/02/11 05:02:46;;;;;;;56.38;32.30;;;4.30;99.90;;;;;;2082167;28;20428;-73
2023/02/11 05:03:46;;;;;;;53.08;32.08;;;4.20;99.90;;;;;;2079545;28;20029;-73
2023/02/11 05:04:47;;;;;;;54.78;32.35;;;4.20;99.90;;;;;;2077766;28;20029;-72
2023/02/11 05:05:47;;;;;;;58.92;33.88;;;4.20;99.90;;;;;;2092952;28;20088;-72
2023/02/11 05:06:48;;;;;;;55.58;33.63;;;4.20;99.90;;;;;;2094369;28;20291;-72
2023/02/11 05:07:48;;;;;;;56.10;33.22;;;4.20;99.90;;;;;;2090420;28;20054;-72
2023/02/11 05:08:49;;;;;;;58.90;33.90;;;4.20;99.90;;;;;;2090596;28;20036;-71
2023/02/11 05:09:49;;;;;;;56.80;33.65;;;4.20;99.90;;;;;;2090436;28;20028;-71
2023/02/11 05:10:50;;;;;;;56.53;33.80;;;4.20;99.90;;;;;;2090906;28;20044;-73
2023/02/11 05:11:51;;;;;;;55.28;32.55;;;4.20;99.90;;;;;;2093151;28;20147;-71
2023/02/11 05:12:51;;;;;;;62.47;36.22;;;4.20;99.90;;;;;;2086008;28;20103;-72
2023/02/11 05:13:52;;;;;;;65.10;35.70;;;4.20;99.90;;;;;;2092352;28;20447;-72
2023/02/11 05:14:52;;;;;;;56.97;33.75;;;4.20;99.90;;;;;;2091815;28;20635;-72
2023/02/11 05:15:53;;;;;;;61.05;36.03;;;4.20;99.90;;;;;;2093175;28;20402;-72
2023/02/11 05:16:53;;;;;;;60.55;35.42;;;4.20;99.90;;;;;;2090465;28;20035;-72
2023/02/11 05:17:55;;;;;;;58.55;34.75;;;4.10;99.90;;;;;;2089745;28;20029;-72
2023/02/11 05:18:55;;;;;;;60.15;35.25;;;4.10;99.90;;;;;;2087206;28;20036;-72
2023/02/11 05:19:56;;;;;;;62.40;35.30;;;4.10;99.90;;;;;;2093914;28;20017;-73
2023/02/11 05:20:56;;;;;;;59.35;34.95;;;4.10;99.90;;;;;;2092796;28;20060;-72
2023/02/11 05:21:57;;;;;;;63.17;35.05;;;4.10;99.90;;;;;;2090882;28;20287;-72
2023/02/11 05:22:57;;;;;;;60.47;34.70;;;4.10;99.90;;;;;;2084125;28;20039;-72
2023/02/11 05:23:58;;;;;;;58.47;34.35;;;4.10;99.90;;;;;;2084062;28;20036;-72
2023/02/11 05:24:58;;;;;;;59.50;34.15;;;4.10;99.90;;;;;;2083704;28;20650;-72
2023/02/11 05:25:59;;;;;;;62.03;35.15;;;4.10;99.90;;;;;;2083906;28;20036;-72
2023/02/11 05:27:00;;;;;;;60.53;35.22;;;4.10;99.90;;;;;;2084241;28;20507;-72
2023/02/11 05:28:01;;;;;;;58.65;34.50;;;4.10;99.90;;;;;;2084937;28;20155;-72
2023/02/11 05:29:02;;;;;;;59.95;35.08;;;4.10;99.90;;;;;;2078798;28;20623;-72
2023/02/11 05:30:04;;;;;;;59.33;35.20;;;4.10;99.90;;;;;;2087229;28;20170;-72
2023/02/11 05:31:05;;;;;;;62.25;34.70;;;4.10;99.90;;;;;;2085552;28;20185;-72
2023/02/11 05:32:07;;;;;;;59.65;34.97;;;4.10;99.90;;;;;;2095393;28;20402;-72
2023/02/11 05:33:08;;;;;;;60.42;35.25;;;4.10;99.90;;;;;;2097774;28;20123;-72
2023/02/11 05:34:08;;;;;;;60.30;35.30;;;4.10;99.90;;;;;;2080100;28;20080;-72
2023/02/11 05:35:09;;;;;;;59.08;34.90;;;4.10;99.90;;;;;;2082978;28;20025;-72
2023/02/11 05:36:12;;;;;;;60.80;35.22;;;4.10;99.90;;;;;;2090202;28;20493;-72